Terminal Aerodrome Forecast
Issued by NWS

Home | Current Version | Previous Version | Text Only | Print | Product List | Glossary On
Versions: 1 2 3 4 5 6 7 8 9 10 11 12 13 14 15 16 17
000
FTUS46 KMFR 180528
TAFOTH
TAF
KOTH 180528Z 1806/1906 36015G21KT P6SM OVC012
     FM180800 36009G15KT 6SM BR OVC010
     FM181100 36005KT 5SM BR VCFG OVC008
     FM181700 36011G20KT P6SM SCT015
     FM182000 36025G34KT P6SM SKC=

USA.gov is the U.S. government's official web portal to all federal, state and local government web resources and services.